KMKE/MKE METAR and TAF weather

Enter ICAO airport designator
Station Type Date Time Source
KMKE METAR 2020/04/06 10:52 UTC NOAA

KMKE 061052Z 00000KT 10SM FEW200 SCT250 01/M01 A3012 RMK AO2 SLP205 I1000 T00111011 $


Station Type Date Time Source
KMKE Decoded METAR 2020/04/06 10:52 UTC NOAA

GEN MITCHELL INTERNATIONAL AIRPORT, WI, United States (KMKE) 42-57N 87-54W 206M
Apr 06, 2020 - 06:52 AM EDT / 2020.04.06 1052 UTC
Wind: Calm:0
Visibility: 10 mile(s):0
Sky conditions: partly cloudy
Temperature: 34.0 F (1.1 C)
Dew Point: 30.0 F (-1.1 C)
Relative Humidity: 85%
Pressure (altimeter): 30.12 in. Hg (1019 hPa)
ob: KMKE 061052Z 00000KT 10SM FEW200 SCT250 01/M01 A3012 RMK AO2 SLP205 I1000 T00111011
cycle: 11

Station Type Date Time Source
KMKE TAF 2020/04/06 09:57 UTC NOAA

TAF
AMD KMKE 060854Z 0609/0712 VRB02KT P6SM FEW250
TEMPO 0609/0613 2SM BR
FM061400 15007KT P6SM BKN250
FM070000 15005KT P6SM VCSH OVC025
FM070300 12003KT 3SM -SHRA BR OVC007
FM070600 10003KT P6SM VCSH OVC005

Example: see airport list